createdAt,value
2022-08-28T00:01:41.052Z,17.17
2022-08-28T00:04:26.649Z,18.10
2022-08-28T00:07:12.243Z,22.08
2022-08-28T00:09:57.172Z,20.48
2022-08-28T00:12:43.664Z,21.30
2022-08-28T00:15:34.698Z,18.98
2022-08-28T00:18:21.198Z,21.30
2022-08-28T00:21:06.366Z,19.77
2022-08-28T00:23:51.589Z,23.25
2022-08-28T00:26:36.892Z,20.40
2022-08-28T00:29:22.949Z,21.63
2022-08-28T00:32:08.188Z,20.90
2022-08-28T00:34:53.359Z,22.40
2022-08-28T00:37:38.982Z,18.77
2022-08-28T00:40:28.678Z,17.35
2022-08-28T00:43:51.312Z,20.10
2022-08-28T00:46:36.890Z,20.70
2022-08-28T00:49:30.318Z,19.65
2022-08-28T00:52:15.822Z,19.40
2022-08-28T00:55:14.201Z,20.05
2022-08-28T00:57:59.884Z,23.42
2022-08-28T01:00:44.745Z,20.85
2022-08-28T01:03:29.911Z,23.23
2022-08-28T01:06:17.862Z,19.02
2022-08-28T01:09:03.773Z,17.35
2022-08-28T01:11:51.385Z,17.77
2022-08-28T01:14:38.920Z,21.08
2022-08-28T01:17:25.828Z,18.17
2022-08-28T01:20:16.392Z,19.10
2022-08-28T01:23:26.429Z,19.10
2022-08-28T01:26:11.925Z,22.10
2022-08-28T01:28:59.576Z,18.08
2022-08-28T01:31:44.599Z,23.27
2022-08-28T01:34:30.097Z,18.92
2022-08-28T01:37:15.031Z,20.13
2022-08-28T01:40:00.416Z,20.13
2022-08-28T01:42:46.045Z,17.45
2022-08-28T01:45:31.257Z,19.65
2022-08-28T01:48:17.092Z,23.27
2022-08-28T01:51:05.185Z,23.08
2022-08-28T01:53:50.209Z,18.77
2022-08-28T01:56:35.655Z,18.88
2022-08-28T01:59:21.740Z,17.33
2022-08-28T02:02:06.983Z,15.75
2022-08-28T02:04:52.457Z,20.48
2022-08-28T02:07:38.067Z,22.95
2022-08-28T02:10:25.035Z,19.42
2022-08-28T02:13:11.917Z,17.90
2022-08-28T02:15:57.636Z,16.98
2022-08-28T02:18:43.244Z,15.82
2022-08-28T02:21:28.525Z,20.27
2022-08-28T02:24:14.331Z,19.58
2022-08-28T02:26:59.204Z,20.08
2022-08-28T02:29:44.678Z,17.50
2022-08-28T02:32:30.111Z,20.80
2022-08-28T02:35:17.961Z,21.50
2022-08-28T02:38:03.090Z,18.20
2022-08-28T02:40:48.581Z,20.42
2022-08-28T02:43:33.998Z,19.75
2022-08-28T02:46:19.255Z,18.15
2022-08-28T02:49:04.357Z,21.65
2022-08-28T02:51:50.476Z,17.85
2022-08-28T02:54:35.743Z,19.73
2022-08-28T02:57:20.918Z,18.45
2022-08-28T03:00:08.469Z,18.77
2022-08-28T03:02:54.005Z,21.35
2022-08-28T03:05:39.206Z,18.88
2022-08-28T03:08:27.350Z,20.73
2022-08-28T03:11:12.858Z,23.88
2022-08-28T03:13:57.897Z,22.83
2022-08-28T03:16:42.911Z,19.85
2022-08-28T03:19:28.238Z,21.08
2022-08-28T03:22:13.430Z,20.80
2022-08-28T03:24:58.573Z,24.42
2022-08-28T03:27:44.120Z,20.55
2022-08-28T03:30:29.681Z,20.80
2022-08-28T03:33:14.912Z,24.58
2022-08-28T03:36:00.885Z,21.52
2022-08-28T03:38:51.288Z,19.65
2022-08-28T03:41:36.480Z,20.83
2022-08-28T03:44:21.759Z,21.67
2022-08-28T03:47:06.609Z,20.48
2022-08-28T03:49:56.136Z,22.67
2022-08-28T03:52:41.144Z,21.27
2022-08-28T03:55:26.603Z,21.58
2022-08-28T03:58:11.945Z,19.52
2022-08-28T04:01:04.189Z,19.77
2022-08-28T04:03:49.917Z,18.20
2022-08-28T04:06:36.155Z,20.15
2022-08-28T04:09:21.186Z,22.55
2022-08-28T04:12:08.209Z,21.88
2022-08-28T04:14:53.482Z,20.20
2022-08-28T04:17:40.084Z,21.65
2022-08-28T04:20:25.164Z,20.83
2022-08-28T04:23:10.029Z,22.60
2022-08-28T04:25:55.239Z,20.27
2022-08-28T04:28:40.916Z,19.00
2022-08-28T04:31:32.054Z,20.88
2022-08-28T04:34:17.921Z,19.90
2022-08-28T04:37:04.059Z,20.48
2022-08-28T04:39:49.576Z,20.15
2022-08-28T04:42:34.425Z,19.70
2022-08-28T04:45:19.814Z,20.92
2022-08-28T04:48:05.466Z,17.95
2022-08-28T04:50:55.371Z,20.27
2022-08-28T04:53:41.205Z,18.10
2022-08-28T04:56:26.280Z,20.25
2022-08-28T04:59:11.366Z,19.77
2022-08-28T05:01:56.493Z,20.65
2022-08-28T05:04:41.769Z,25.02
2022-08-28T05:07:26.741Z,24.33
2022-08-28T05:10:11.605Z,18.42
2022-08-28T05:12:56.389Z,21.52
2022-08-28T05:15:43.641Z,22.35
2022-08-28T05:18:29.877Z,16.00
2022-08-28T05:21:22.949Z,18.50
2022-08-28T05:24:08.748Z,18.58
2022-08-28T05:26:53.983Z,19.98
2022-08-28T05:29:39.313Z,19.30
2022-08-28T05:32:24.283Z,19.67
2022-08-28T05:35:09.285Z,25.42
2022-08-28T05:37:54.546Z,21.38
2022-08-28T05:40:44.876Z,16.60
2022-08-28T05:43:31.012Z,19.35
2022-08-28T05:46:16.808Z,18.73
2022-08-28T05:49:01.864Z,22.05
2022-08-28T05:51:48.736Z,17.77
2022-08-28T05:54:33.720Z,18.13
2022-08-28T05:57:18.504Z,19.80
2022-08-28T06:00:04.436Z,20.38
2022-08-28T06:02:49.915Z,19.73
2022-08-28T06:05:35.675Z,20.90
2022-08-28T06:08:21.207Z,17.20
2022-08-28T06:11:06.789Z,19.92
2022-08-28T06:13:52.910Z,22.38
2022-08-28T06:16:41.387Z,20.13
2022-08-28T06:19:28.999Z,20.05
2022-08-28T06:22:13.979Z,19.52
2022-08-28T06:24:58.929Z,19.58
2022-08-28T06:27:44.339Z,19.83
2022-08-28T06:30:29.649Z,20.65
2022-08-28T06:33:15.716Z,19.17
2022-08-28T06:36:04.532Z,17.27
2022-08-28T06:38:49.721Z,17.38
2022-08-28T06:41:35.739Z,18.27
2022-08-28T06:44:21.804Z,15.93
2022-08-28T06:47:07.011Z,18.92
2022-08-28T06:49:52.387Z,16.27
2022-08-28T06:52:37.823Z,20.55
2022-08-28T06:55:26.445Z,18.05
2022-08-28T06:58:12.805Z,21.08
2022-08-28T07:01:06.734Z,21.13
2022-08-28T07:03:54.378Z,16.85
2022-08-28T07:06:42.649Z,18.33
2022-08-28T07:09:27.714Z,18.02
2022-08-28T07:12:17.869Z,19.25
2022-08-28T07:15:03.984Z,16.20
2022-08-28T07:17:49.043Z,14.38
2022-08-28T07:20:34.440Z,17.58
2022-08-28T07:23:19.301Z,16.98
2022-08-28T07:26:07.325Z,15.82
2022-08-28T07:28:59.503Z,20.23
2022-08-28T07:31:54.922Z,16.42
2022-08-28T07:34:40.283Z,17.95
2022-08-28T07:37:25.864Z,15.27
2022-08-28T07:40:12.135Z,19.55
2022-08-28T07:42:57.508Z,17.80
2022-08-28T07:45:43.286Z,19.33
2022-08-28T07:48:28.612Z,15.32
2022-08-28T07:51:13.946Z,18.58
2022-08-28T07:53:59.129Z,19.10
2022-08-28T07:56:44.252Z,16.30
2022-08-28T07:59:34.177Z,15.30
2022-08-28T08:02:22.283Z,15.68
2022-08-28T08:05:10.241Z,14.77
2022-08-28T08:07:56.729Z,18.27
2022-08-28T08:10:41.620Z,17.35
2022-08-28T08:13:27.217Z,13.63
2022-08-28T08:16:18.697Z,15.35
2022-08-28T08:19:04.216Z,17.98
2022-08-28T08:21:54.912Z,13.40
2022-08-28T08:24:40.606Z,15.85
2022-08-28T08:27:26.429Z,25.38
2022-08-28T08:30:12.126Z,18.95
2022-08-28T08:32:57.447Z,13.20
2022-08-28T08:35:42.974Z,14.30
2022-08-28T08:38:29.865Z,18.13
2022-08-28T08:41:24.400Z,13.55
2022-08-28T08:44:23.246Z,18.58
2022-08-28T08:47:27.541Z,15.07
2022-08-28T08:50:22.814Z,15.60
2022-08-28T08:53:23.353Z,14.68
2022-08-28T08:56:13.617Z,15.23
2022-08-28T08:59:00.073Z,15.80
2022-08-28T09:01:55.212Z,16.08
2022-08-28T09:04:40.476Z,14.45
2022-08-28T09:07:25.886Z,16.17
2022-08-28T09:10:12.643Z,13.50
2022-08-28T09:13:03.155Z,14.30
2022-08-28T09:15:50.837Z,13.18
2022-08-28T09:18:36.418Z,12.90
2022-08-28T09:21:40.063Z,16.63
2022-08-28T09:24:29.098Z,13.00
2022-08-28T09:27:31.242Z,14.35
2022-08-28T09:30:30.110Z,14.07
2022-08-28T09:33:27.497Z,12.68
2022-08-28T09:36:24.094Z,13.73
2022-08-28T09:39:26.335Z,12.93
2022-08-28T09:42:22.562Z,16.42
2022-08-28T09:45:23.263Z,12.40
2022-08-28T09:48:24.201Z,16.73
2022-08-28T09:51:10.654Z,13.50
2022-08-28T09:54:04.637Z,14.68
2022-08-28T09:56:50.520Z,12.10
2022-08-28T09:59:35.289Z,13.85
2022-08-28T10:02:29.625Z,12.40
2022-08-28T10:05:18.740Z,15.00
2022-08-28T10:08:32.641Z,16.75
2022-08-28T10:11:32.891Z,13.50
2022-08-28T10:14:28.238Z,11.82
2022-08-28T10:17:50.817Z,14.57
2022-08-28T10:21:03.665Z,14.15
2022-08-28T10:24:03.968Z,14.88
2022-08-28T10:27:07.435Z,11.85
2022-08-28T10:30:07.852Z,12.27
2022-08-28T10:33:01.458Z,14.60
2022-08-28T10:35:55.874Z,16.25
2022-08-28T10:38:53.135Z,17.27
2022-08-28T10:41:49.949Z,14.10
2022-08-28T10:45:01.173Z,16.80
2022-08-28T10:47:51.322Z,15.07
2022-08-28T10:51:04.892Z,12.23
2022-08-28T10:53:55.982Z,17.27
2022-08-28T10:56:46.111Z,15.98
2022-08-28T10:59:42.672Z,15.38
2022-08-28T11:02:29.956Z,12.65
2022-08-28T11:05:21.471Z,19.58
2022-08-28T11:08:10.922Z,13.13
2022-08-28T11:10:58.473Z,13.10
2022-08-28T11:13:56.940Z,17.55
2022-08-28T11:16:46.917Z,14.90
2022-08-28T11:19:50.275Z,14.20
2022-08-28T11:22:41.801Z,12.30
2022-08-28T11:25:48.067Z,14.98
2022-08-28T11:28:36.271Z,15.25
2022-08-28T11:31:29.022Z,16.00
2022-08-28T11:34:57.065Z,15.52
2022-08-28T11:37:45.438Z,13.52
2022-08-28T11:40:30.775Z,13.15
2022-08-28T11:43:16.471Z,13.75
2022-08-28T11:46:11.080Z,11.73
2022-08-28T11:48:59.071Z,12.68
2022-08-28T11:51:53.118Z,14.25
2022-08-28T11:54:59.759Z,14.00
2022-08-28T12:00:59.245Z,13.85
2022-08-28T12:03:55.107Z,12.52
2022-08-28T12:06:45.660Z,12.68
2022-08-28T12:09:45.013Z,13.75
2022-08-28T12:12:44.927Z,13.27
2022-08-28T12:15:38.756Z,10.73
2022-08-28T12:18:39.325Z,9.88
2022-08-28T12:21:27.955Z,13.68
2022-08-28T12:24:21.706Z,11.57
2022-08-28T12:27:07.860Z,11.40
2022-08-28T12:29:58.666Z,11.73
2022-08-28T12:32:58.882Z,9.93
2022-08-28T12:35:44.228Z,10.50
2022-08-28T12:38:33.157Z,10.70
2022-08-28T12:41:19.455Z,10.05
2022-08-28T12:44:06.411Z,9.70
2022-08-28T12:46:52.337Z,10.48
2022-08-28T12:49:37.981Z,11.90
2022-08-28T12:52:26.122Z,10.20
2022-08-28T12:55:11.476Z,12.48
2022-08-28T12:57:57.086Z,10.40
2022-08-28T13:00:54.720Z,10.75
2022-08-28T13:03:49.786Z,9.90
2022-08-28T13:06:39.158Z,12.23
2022-08-28T13:09:27.476Z,11.30
2022-08-28T13:12:23.809Z,12.57
2022-08-28T13:15:50.129Z,8.25
2022-08-28T13:18:52.207Z,8.45
2022-08-28T13:21:46.379Z,8.68
2022-08-28T13:24:34.701Z,8.02
2022-08-28T13:27:23.379Z,10.60
2022-08-28T13:30:14.633Z,12.02
2022-08-28T13:33:03.458Z,9.20
2022-08-28T13:35:49.423Z,11.90
2022-08-28T13:38:35.171Z,14.65
2022-08-28T13:41:20.504Z,10.98
2022-08-28T13:44:07.018Z,12.23
2022-08-28T13:46:52.311Z,13.05
2022-08-28T13:49:39.417Z,9.40
2022-08-28T13:52:24.812Z,11.70
2022-08-28T13:55:10.221Z,9.70
2022-08-28T13:57:55.525Z,11.35
2022-08-28T14:00:45.017Z,12.68
2022-08-28T14:03:30.355Z,12.07
2022-08-28T14:06:17.407Z,10.68
2022-08-28T14:09:02.692Z,11.70
2022-08-28T14:11:48.609Z,12.25
2022-08-28T14:14:34.796Z,10.07
2022-08-28T14:17:20.314Z,13.98
2022-08-28T14:20:06.444Z,12.82
2022-08-28T14:22:51.815Z,11.30
2022-08-28T14:25:44.294Z,11.65
2022-08-28T14:28:29.362Z,13.23
2022-08-28T14:31:15.076Z,12.57
2022-08-28T14:34:00.349Z,15.88
2022-08-28T14:36:46.653Z,14.98
2022-08-28T14:39:31.877Z,9.55
2022-08-28T14:42:17.960Z,12.50
2022-08-28T14:45:03.947Z,10.45
2022-08-28T14:47:49.074Z,11.80
2022-08-28T14:50:39.287Z,10.85
2022-08-28T14:53:24.436Z,11.73
2022-08-28T14:56:10.939Z,9.65
2022-08-28T14:58:58.149Z,8.38
2022-08-28T15:01:43.616Z,8.93
2022-08-28T15:04:32.049Z,10.60
2022-08-28T15:07:17.387Z,11.93
2022-08-28T15:10:02.278Z,8.38
2022-08-28T15:12:47.649Z,8.80
2022-08-28T15:15:33.006Z,9.90
2022-08-28T15:18:17.928Z,10.25
2022-08-28T15:21:03.398Z,9.00
2022-08-28T15:23:49.609Z,9.55
2022-08-28T15:26:35.151Z,9.65
2022-08-28T15:29:20.764Z,11.73
2022-08-28T15:32:05.803Z,10.52
2022-08-28T15:34:50.941Z,9.88
2022-08-28T15:37:36.363Z,12.20
2022-08-28T15:40:21.311Z,12.55
2022-08-28T15:43:06.851Z,9.95
2022-08-28T15:45:52.547Z,8.45
2022-08-28T15:48:37.639Z,12.13
2022-08-28T15:51:25.872Z,7.82
2022-08-28T15:54:11.344Z,15.18
2022-08-28T15:56:56.897Z,15.35
2022-08-28T15:59:49.858Z,13.15
2022-08-28T16:02:35.443Z,8.38
2022-08-28T16:05:20.296Z,9.35
2022-08-28T16:08:05.814Z,12.13
2022-08-28T16:10:52.199Z,10.82
2022-08-28T16:13:38.157Z,10.82
2022-08-28T16:16:23.376Z,12.52
2022-08-28T16:19:10.395Z,8.52
2022-08-28T16:21:56.425Z,15.23
2022-08-28T16:24:42.409Z,12.25
2022-08-28T16:27:27.412Z,12.48
2022-08-28T16:30:15.737Z,11.20
2022-08-28T16:33:03.710Z,11.32
2022-08-28T16:35:55.111Z,10.55
2022-08-28T16:38:44.061Z,8.93
2022-08-28T16:41:29.279Z,15.40
2022-08-28T16:44:21.800Z,11.68
2022-08-28T16:47:07.147Z,10.45
2022-08-28T16:49:57.937Z,10.02
2022-08-28T16:52:43.096Z,12.98
2022-08-28T16:55:29.153Z,9.73
2022-08-28T16:58:16.943Z,9.38
2022-08-28T17:01:02.923Z,10.80
2022-08-28T17:03:48.560Z,10.75
2022-08-28T17:06:33.493Z,13.23
2022-08-28T17:09:20.795Z,11.07
2022-08-28T17:12:06.767Z,11.18
2022-08-28T17:14:51.872Z,8.85
2022-08-28T17:17:37.702Z,10.80
2022-08-28T17:20:23.382Z,10.02
2022-08-28T17:23:08.495Z,12.20
2022-08-28T17:25:53.948Z,11.48
2022-08-28T17:28:39.205Z,11.00
2022-08-28T17:31:24.654Z,10.55
2022-08-28T17:34:10.631Z,11.68
2022-08-28T17:36:56.087Z,11.20
2022-08-28T17:39:42.196Z,10.43
2022-08-28T17:42:27.579Z,10.65
2022-08-28T17:45:13.522Z,9.23
2022-08-28T17:47:58.992Z,11.55
2022-08-28T17:50:44.933Z,12.85
2022-08-28T17:53:30.024Z,10.65
2022-08-28T17:56:15.443Z,10.30
2022-08-28T17:59:00.734Z,11.32
2022-08-28T18:01:47.017Z,13.35
2022-08-28T18:04:32.393Z,13.07
2022-08-28T18:07:17.892Z,15.77
2022-08-28T18:10:05.145Z,11.88
2022-08-28T18:12:50.579Z,12.20
2022-08-28T18:15:36.834Z,10.68
2022-08-28T18:18:22.329Z,8.90
2022-08-28T18:21:16.682Z,13.02
2022-08-28T18:24:02.029Z,9.07
2022-08-28T18:26:47.410Z,12.07
2022-08-28T18:29:33.292Z,9.60
2022-08-28T18:32:18.490Z,10.45
2022-08-28T18:35:03.810Z,13.50
2022-08-28T18:37:49.823Z,10.98
2022-08-28T18:40:36.714Z,11.25
2022-08-28T18:43:22.119Z,11.45
2022-08-28T18:46:08.907Z,10.80
2022-08-28T18:48:53.860Z,13.27
2022-08-28T18:51:44.111Z,10.00
2022-08-28T18:54:29.280Z,11.05
2022-08-28T18:57:14.684Z,10.95
2022-08-28T19:00:00.067Z,13.65
2022-08-28T19:02:45.613Z,11.57
2022-08-28T19:05:31.756Z,12.02
2022-08-28T19:08:18.564Z,11.05
2022-08-28T19:11:12.539Z,13.75
2022-08-28T19:13:58.256Z,15.02
2022-08-28T19:16:43.454Z,11.50
2022-08-28T19:19:28.825Z,12.95
2022-08-28T19:22:14.417Z,13.60
2022-08-28T19:25:04.375Z,11.48
2022-08-28T19:28:01.449Z,11.90
2022-08-28T19:30:46.714Z,16.20
2022-08-28T19:33:32.311Z,11.35
2022-08-28T19:36:19.160Z,13.52
2022-08-28T19:39:05.347Z,12.80
2022-08-28T19:41:51.653Z,14.20
2022-08-28T19:44:39.977Z,13.48
2022-08-28T19:47:25.339Z,14.23
2022-08-28T19:50:11.863Z,12.70
2022-08-28T19:52:57.203Z,13.40
2022-08-28T19:55:42.442Z,12.70
2022-08-28T19:58:27.800Z,11.80
2022-08-28T20:01:12.657Z,13.02
2022-08-28T20:03:59.749Z,10.70
2022-08-28T20:06:45.525Z,15.02
2022-08-28T20:09:30.864Z,12.55
2022-08-28T20:12:16.356Z,15.52
2022-08-28T20:15:03.593Z,16.23
2022-08-28T20:17:49.683Z,15.68
2022-08-28T20:20:35.564Z,14.50
2022-08-28T20:23:20.694Z,11.98
2022-08-28T20:26:09.404Z,12.15
2022-08-28T20:28:54.512Z,14.15
2022-08-28T20:31:42.556Z,15.50
2022-08-28T20:34:27.941Z,15.93
2022-08-28T20:37:12.865Z,14.20
2022-08-28T20:39:58.466Z,12.30
2022-08-28T20:42:44.072Z,12.27
2022-08-28T20:45:29.137Z,14.43
2022-08-28T20:48:14.831Z,13.00
2022-08-28T20:51:01.376Z,13.63
2022-08-28T20:53:46.213Z,14.18
2022-08-28T20:56:31.553Z,11.73
2022-08-28T20:59:16.835Z,10.32
2022-08-28T21:02:02.106Z,11.43
2022-08-28T21:04:47.484Z,11.50
2022-08-28T21:07:32.872Z,12.50
2022-08-28T21:10:17.969Z,12.20
2022-08-28T21:13:03.934Z,11.20
2022-08-28T21:15:49.225Z,10.35
2022-08-28T21:18:35.451Z,11.02
2022-08-28T21:21:20.495Z,10.65
2022-08-28T21:24:11.664Z,11.32
2022-08-28T21:26:56.771Z,11.57
2022-08-28T21:29:41.628Z,11.95
2022-08-28T21:32:28.546Z,12.25
2022-08-28T21:35:13.798Z,13.73
2022-08-28T21:37:58.673Z,12.68
2022-08-28T21:40:43.627Z,14.50
2022-08-28T21:43:31.483Z,12.20
2022-08-28T21:46:17.093Z,12.55
2022-08-28T21:49:02.369Z,12.95
2022-08-28T21:51:47.943Z,12.00
2022-08-28T21:54:33.033Z,11.68
2022-08-28T21:57:18.553Z,12.27
2022-08-28T22:00:14.366Z,11.65
2022-08-28T22:02:59.439Z,13.57
2022-08-28T22:05:46.300Z,11.40
2022-08-28T22:08:31.269Z,12.80
2022-08-28T22:11:17.075Z,11.98
2022-08-28T22:14:09.872Z,11.00
2022-08-28T22:16:55.202Z,10.38
2022-08-28T22:19:40.979Z,12.25
2022-08-28T22:22:26.116Z,14.05
2022-08-28T22:25:11.694Z,11.52
2022-08-28T22:27:56.884Z,11.38
2022-08-28T22:30:41.576Z,12.70
2022-08-28T22:33:27.245Z,11.90
2022-08-28T22:36:13.269Z,11.82
2022-08-28T22:38:58.692Z,13.98
2022-08-28T22:41:43.464Z,12.70
2022-08-28T22:44:28.809Z,15.77
2022-08-28T22:47:13.677Z,10.25
2022-08-28T22:49:58.925Z,12.02
2022-08-28T22:52:49.501Z,11.18
2022-08-28T22:55:37.823Z,10.38
2022-08-28T22:58:25.303Z,9.27
2022-08-28T23:01:20.257Z,11.65
2022-08-28T23:04:05.763Z,11.70
2022-08-28T23:06:51.083Z,10.80
2022-08-28T23:09:36.898Z,12.35
2022-08-28T23:12:22.272Z,14.95
2022-08-28T23:15:10.281Z,15.02
2022-08-28T23:17:55.726Z,12.90
2022-08-28T23:20:41.541Z,11.13
2022-08-28T23:23:28.387Z,12.93
2022-08-28T23:26:15.498Z,10.77
2022-08-28T23:29:00.963Z,11.50
2022-08-28T23:31:45.827Z,11.07
2022-08-28T23:34:33.953Z,10.63
2022-08-28T23:37:20.155Z,13.38
2022-08-28T23:40:10.225Z,10.80
2022-08-28T23:42:56.362Z,10.13
2022-08-28T23:45:42.431Z,13.35
2022-08-28T23:48:27.884Z,11.40
2022-08-28T23:51:14.836Z,12.40
2022-08-28T23:54:00.445Z,10.63
2022-08-28T23:56:45.482Z,10.55
2022-08-28T23:59:30.865Z,12.63
